Terminal Aerodrome Forecast
Issued by NWS

Home | Current Version | Previous Version | Graphics & Text | Print | Product List | Glossary On
Versions: 1 2 3 4 5 6 7 8 9 10 11 12 13
138
FTUS42 KMHX 010544
TAFISO
TAF
KISO 010544Z 0106/0206 21015G25KT P6SM VCSH SCT015 OVC060
     FM010700 22012G22KT P6SM VCSH SCT015 OVC025
     FM011000 25009KT P6SM VCSH SCT015 BKN025
     FM011300 30008KT P6SM SKC
      AMD LTD TO VIS AND WIND=

USA.gov is the U.S. government's official web portal to all federal, state and local government web resources and services.